Time;durP1;ratioP1;P1;durP2;ratioP2;P2;SDS_P1;SDS_P2;PMS_P1;PMS_P2;Temp;Humidity;BMP_temperature;BMP_pressure;BME280_temperature;BME280_humidity;BME280_pressure;Samples;Min_cycle;Max_cycle;Signal;HPM_P1;HPM_P2
2024/02/08 00:01:03;;;;;;;;;;;333.00;2329.60;;;;;;4977713;28;19959;-79
2024/02/08 00:03:29;;;;;;;;;;;333.00;2329.60;;;;;;4977707;28;20017;-79
2024/02/08 00:05:54;;;;;;;;;;;333.00;2329.60;;;;;;4994966;28;19918;-80
2024/02/08 00:08:20;;;;;;;;;;;333.00;2329.60;;;;;;4987794;28;19932;-81
2024/02/08 00:10:47;;;;;;;;;;;333.00;2329.60;;;;;;5004114;28;19910;-83
2024/02/08 00:13:13;;;;;;;;;;;333.10;2329.60;;;;;;4980435;28;20005;-78
2024/02/08 00:15:39;;;;;;;;;;;333.10;2329.60;;;;;;4976865;28;20088;-79
2024/02/08 00:18:05;;;;;;;;;;;333.10;2329.60;;;;;;4994255;28;20009;-82
2024/02/08 00:20:31;;;;;;;;;;;333.10;2329.60;;;;;;4995565;28;19909;-80
2024/02/08 00:22:57;;;;;;;;;;;333.10;2329.60;;;;;;4983433;28;19917;-82
2024/02/08 00:25:24;;;;;;;;;;;333.10;2329.60;;;;;;4977789;28;19917;-80
2024/02/08 00:27:52;;;;;;;;;;;333.10;2329.60;;;;;;4994082;28;19910;-84
2024/02/08 00:30:18;;;;;;;;;;;333.40;2329.60;;;;;;4997335;28;19917;-81
2024/02/08 00:32:48;;;;;;;;;;;333.10;2329.60;;;;;;4976738;28;19910;-80
2024/02/08 00:35:17;;;;;;;;;;;333.10;2329.60;;;;;;4994077;28;19913;-80
2024/02/08 00:37:48;;;;;;;;;;;333.10;2329.60;;;;;;4977954;28;19914;-79
2024/02/08 00:40:15;;;;;;;;;;;333.20;2329.60;;;;;;4976160;28;19906;-79
2024/02/08 00:42:41;;;;;;;;;;;333.20;2329.60;;;;;;4977430;28;20364;-80
2024/02/08 00:45:07;;;;;;;;;;;333.20;2329.60;;;;;;4978196;28;20370;-82
2024/02/08 00:47:32;;;;;;;;;;;333.20;2329.60;;;;;;4977044;28;19906;-81
2024/02/08 00:49:59;;;;;;;;;;;333.20;2329.60;;;;;;5005376;28;19906;-79
2024/02/08 00:52:25;;;;;;;;;;;333.20;2329.60;;;;;;4977344;28;19912;-81
2024/02/08 00:54:51;;;;;;;;;;;333.20;2329.60;;;;;;4977737;28;19906;-83
2024/02/08 00:57:16;;;;;;;;;;;333.20;2329.60;;;;;;4977210;28;20283;-80
2024/02/08 00:59:42;;;;;;;;;;;333.20;2329.60;;;;;;4994940;28;19952;-80
2024/02/08 01:02:09;;;;;;;;;;;333.20;2329.60;;;;;;4988230;28;20271;-83
2024/02/08 01:04:34;;;;;;;;;;;333.20;2329.60;;;;;;4994767;28;19916;-84
2024/02/08 01:07:00;;;;;;;;;;;333.20;2329.60;;;;;;4976151;28;19905;-82
2024/02/08 01:09:26;;;;;;;;;;;333.20;2329.60;;;;;;4965816;28;19952;-80
2024/02/08 01:11:51;;;;;;;;;;;333.20;2329.60;;;;;;4994713;28;19906;-83
2024/02/08 01:14:21;;;;;;;;;;;333.20;2329.60;;;;;;4993720;28;19912;-83
2024/02/08 01:16:49;;;;;;;;;;;333.20;2329.60;;;;;;4982468;28;19961;-82
2024/02/08 01:19:16;;;;;;;;;;;333.20;2329.60;;;;;;4977372;28;19956;-81
2024/02/08 01:21:43;;;;;;;;;;;333.20;2329.60;;;;;;4976903;28;19922;-83
2024/02/08 01:24:09;;;;;;;;;;;333.20;2329.60;;;;;;4977347;28;20004;-81
2024/02/08 01:26:35;;;;;;;;;;;333.20;2329.60;;;;;;4977163;28;20394;-82
2024/02/08 01:29:05;;;;;;;;;;;333.20;2329.60;;;;;;4997531;28;19929;-83
2024/02/08 01:31:32;;;;;;;;;;;333.20;2329.60;;;;;;4998501;28;19913;-80
2024/02/08 01:33:57;;;;;;;;;;;333.20;2329.60;;;;;;4997524;28;20491;-80
2024/02/08 01:36:23;;;;;;;;;;;333.20;2329.60;;;;;;4983144;28;20000;-81
2024/02/08 01:38:51;;;;;;;;;;;333.10;2329.60;;;;;;4998756;28;19928;-80
2024/02/08 01:41:17;;;;;;;;;;;333.10;2329.60;;;;;;4980777;28;19906;-79
2024/02/08 01:43:42;;;;;;;;;;;333.20;2329.60;;;;;;4989853;28;19940;-80
2024/02/08 01:46:12;;;;;;;;;;;333.20;2329.60;;;;;;4998208;28;20374;-79
2024/02/08 01:48:41;;;;;;;;;;;333.20;2329.60;;;;;;4974473;28;19913;-79
2024/02/08 01:51:11;;;;;;;;;;;333.10;2329.60;;;;;;4998057;28;19929;-79
2024/02/08 01:53:39;;;;;;;;;;;333.10;2329.60;;;;;;4986198;28;19913;-80
2024/02/08 01:56:05;;;;;;;;;;;333.10;2329.60;;;;;;4980940;28;19914;-79
2024/02/08 01:58:30;;;;;;;;;;;333.10;2329.60;;;;;;4980609;28;19909;-80
2024/02/08 02:00:56;;;;;;;;;;;333.10;2329.60;;;;;;4980247;28;19952;-79
2024/02/08 02:03:23;;;;;;;;;;;333.10;2329.60;;;;;;4996256;28;19964;-79
2024/02/08 02:05:49;;;;;;;;;;;333.10;2329.60;;;;;;4980477;28;19909;-79
2024/02/08 02:08:26;;;;;;;;;;;333.20;2329.60;;;;;;4997565;28;19905;-78
2024/02/08 02:11:05;;;;;;;;;;;333.10;2329.60;;;;;;4997771;28;19906;-79
2024/02/08 02:13:33;;;;;;;;;;;333.10;2329.60;;;;;;4996336;28;19905;-79
2024/02/08 02:19:13;;;;;;;;;;;333.10;2329.60;;;;;;2460518;23;19927;-79
2024/02/08 02:21:39;;;;;;;;;;;333.10;2329.60;;;;;;5009010;28;19909;-79
2024/02/08 02:24:07;;;;;;;;;;;333.10;2329.60;;;;;;5015182;28;19951;-80
2024/02/08 02:26:34;;;;;;;;;;;333.10;2329.60;;;;;;5007777;28;19912;-79
2024/02/08 02:29:02;;;;;;;;;;;333.10;2329.60;;;;;;5035931;28;19963;-80
2024/02/08 02:31:32;;;;;;;;;;;333.00;2329.60;;;;;;5018406;28;19905;-79
2024/02/08 02:33:58;;;;;;;;;;;333.00;2329.60;;;;;;5017462;28;19905;-78
2024/02/08 02:36:23;;;;;;;;;;;333.00;2329.60;;;;;;5006282;28;20256;-78
2024/02/08 02:38:51;;;;;;;;;;;332.80;2329.60;;;;;;5033644;28;19912;-79
2024/02/08 02:41:18;;;;;;;;;;;308.10;2304.00;;;;;;5018010;28;19904;-78
2024/02/08 02:43:44;;;;;;;;;;;308.10;2304.00;;;;;;5017341;28;20350;-78
2024/02/08 02:46:10;;;;;;;;;;;308.10;2304.00;;;;;;5017823;28;20266;-79
2024/02/08 02:48:40;;;;;;;;;;;308.10;2304.00;;;;;;5017448;28;19956;-78
2024/02/08 02:51:11;;;;;;;;;;;308.10;2304.00;;;;;;5017810;28;19948;-78
2024/02/08 02:53:40;;;;;;;;;;;308.10;2304.00;;;;;;5018077;28;19905;-78
2024/02/08 02:56:08;;;;;;;;;;;332.90;2329.60;;;;;;5001367;28;20022;-78
2024/02/08 02:58:35;;;;;;;;;;;308.10;2304.00;;;;;;5008014;28;19905;-78
2024/02/08 03:01:04;;;;;;;;;;;332.80;2329.60;;;;;;5017711;28;20366;-78
2024/02/08 03:03:40;;;;;;;;;;;332.90;2329.60;;;;;;5017305;28;20366;-80
2024/02/08 03:06:15;;;;;;;;;;;332.80;2329.60;;;;;;5017375;28;20339;-81
2024/02/08 03:08:42;;;;;;;;;;;332.80;2329.60;;;;;;5017378;28;19909;-79
2024/02/08 03:11:10;;;;;;;;;;;332.80;2329.60;;;;;;5017566;28;19912;-79
2024/02/08 03:13:40;;;;;;;;;;;308.10;2304.00;;;;;;5017381;28;20000;-79
2024/02/08 03:16:06;;;;;;;;;;;308.10;2304.00;;;;;;5017375;28;19913;-79
2024/02/08 03:18:38;;;;;;;;;;;308.00;2304.00;;;;;;5034357;28;20434;-79
2024/02/08 03:21:04;;;;;;;;;;;308.10;2304.00;;;;;;5034631;28;19947;-78
2024/02/08 03:23:30;;;;;;;;;;;308.10;2304.00;;;;;;5016973;28;19963;-79
2024/02/08 03:25:56;;;;;;;;;;;308.10;2304.00;;;;;;5017150;28;19909;-78
2024/02/08 03:28:23;;;;;;;;;;;308.10;2304.00;;;;;;5016994;28;19974;-79
2024/02/08 03:30:52;;;;;;;;;;;308.10;2304.00;;;;;;5016782;28;19912;-80
2024/02/08 03:33:18;;;;;;;;;;;308.10;2304.00;;;;;;5017084;28;19952;-78
2024/02/08 03:35:48;;;;;;;;;;;308.00;2304.00;;;;;;5034568;28;19913;-77
2024/02/08 03:38:14;;;;;;;;;;;307.80;2304.00;;;;;;5016400;28;20338;-79
2024/02/08 03:40:40;;;;;;;;;;;307.80;2304.00;;;;;;5011374;28;19909;-78
2024/02/08 03:43:06;;;;;;;;;;;307.80;2304.00;;;;;;5006600;28;19969;-81
2024/02/08 03:45:31;;;;;;;;;;;307.60;2304.00;;;;;;5005516;28;19906;-77
2024/02/08 03:48:00;;;;;;;;;;;307.50;2304.00;;;;;;5004927;28;20039;-78
2024/02/08 03:50:29;;;;;;;;;;;307.30;2304.00;;;;;;5012966;28;19909;-79
2024/02/08 03:52:55;;;;;;;;;;;307.20;2304.00;;;;;;5026208;28;19920;-78
2024/02/08 03:55:26;;;;;;;;;;;307.20;2304.00;;;;;;5004536;28;20000;-79
2024/02/08 03:58:06;;;;;;;;;;;282.50;2278.40;;;;;;5012911;28;19912;-79
2024/02/08 04:00:33;;;;;;;;;;;307.20;2304.00;;;;;;5011551;28;19996;-79
2024/02/08 04:03:01;;;;;;;;;;;307.30;2304.00;;;;;;5003514;28;20000;-79
2024/02/08 04:05:58;;;;;;;;;;;307.20;2304.00;;;;;;5007078;28;19910;-78
2024/02/08 04:54:40;;;;;;;;;;;282.30;2278.40;;;;;;5026210;28;19916;-79
2024/02/08 04:57:07;;;;;;;;;;;282.20;2278.40;;;;;;5002419;28;19936;-79
2024/02/08 04:59:36;;;;;;;;;;;282.20;2278.40;;;;;;5011079;28;20066;-79
2024/02/08 05:02:02;;;;;;;;;;;282.20;2278.40;;;;;;5004069;28;19952;-80
2024/02/08 05:04:28;;;;;;;;;;;282.20;2278.40;;;;;;5017392;28;19947;-79
2024/02/08 05:06:55;;;;;;;;;;;282.30;2278.40;;;;;;5000775;28;20369;-81
2024/02/08 05:09:21;;;;;;;;;;;282.30;2278.40;;;;;;5013285;28;19916;-80
2024/02/08 05:11:48;;;;;;;;;;;282.30;2278.40;;;;;;5010500;28;19909;-80
2024/02/08 05:14:14;;;;;;;;;;;282.30;2278.40;;;;;;5018801;28;20270;-79
2024/02/08 05:16:40;;;;;;;;;;;282.30;2278.40;;;;;;5019811;28;19917;-77
2024/02/08 05:19:09;;;;;;;;;;;282.30;2278.40;;;;;;5002618;28;20259;-82
2024/02/08 05:21:41;;;;;;;;;;;282.30;2278.40;;;;;;5002260;28;20402;-77
2024/02/08 05:24:08;;;;;;;;;;;282.20;2278.40;;;;;;5018294;28;20343;-77
2024/02/08 05:26:34;;;;;;;;;;;282.20;2278.40;;;;;;5007264;28;19959;-76
2024/02/08 05:28:59;;;;;;;;;;;282.20;2278.40;;;;;;5012181;28;19913;-77
2024/02/08 05:31:29;;;;;;;;;;;282.30;2278.40;;;;;;5023578;28;19920;-77
2024/02/08 05:33:56;;;;;;;;;;;282.30;2278.40;;;;;;5022768;28;19905;-77
2024/02/08 05:36:23;;;;;;;;;;;282.20;2278.40;;;;;;5023169;28;19913;-76
2024/02/08 05:38:52;;;;;;;;;;;282.20;2278.40;;;;;;5020112;28;19996;-78
2024/02/08 05:41:17;;;;;;;;;;;282.20;2278.40;;;;;;5014352;28;19909;-76
2024/02/08 05:43:47;;;;;;;;;;;282.10;2278.40;;;;;;5022425;28;19912;-77
2024/02/08 05:46:24;;;;;;;;;;;282.10;2278.40;;;;;;5018507;28;20429;-77
2024/02/08 05:49:04;;;;;;;;;;;282.20;2278.40;;;;;;5013090;28;19910;-77
2024/02/08 05:51:30;;;;;;;;;;;282.30;2278.40;;;;;;5003968;28;20331;-76
2024/02/08 05:53:56;;;;;;;;;;;282.30;2278.40;;;;;;5003620;28;19953;-78
2024/02/08 05:56:21;;;;;;;;;;;282.20;2278.40;;;;;;5007251;28;19971;-77
2024/02/08 05:58:52;;;;;;;;;;;282.30;2278.40;;;;;;5026128;28;19932;-77
2024/02/08 06:01:23;;;;;;;;;;;282.30;2278.40;;;;;;5022633;28;19939;-78
2024/02/08 06:03:49;;;;;;;;;;;282.40;2278.40;;;;;;5022637;28;19960;-76
2024/02/08 06:06:33;;;;;;;;;;;307.20;2304.00;;;;;;5007273;28;19912;-77
2024/02/08 06:09:08;;;;;;;;;;;307.30;2304.00;;;;;;5024690;28;19910;-78
2024/02/08 06:11:37;;;;;;;;;;;307.20;2304.00;;;;;;4997804;28;19914;-75
2024/02/08 06:14:12;;;;;;;;;;;307.20;2304.00;;;;;;5030577;28;19955;-77
2024/02/08 06:16:47;;;;;;;;;;;307.20;2304.00;;;;;;5025441;28;20325;-76
2024/02/08 06:19:17;;;;;;;;;;;307.20;2304.00;;;;;;5028348;28;19917;-77
2024/02/08 06:21:45;;;;;;;;;;;307.30;2304.00;;;;;;5012972;28;19913;-77
2024/02/08 06:26:58;;;;;;;;;;;307.30;2304.00;;;;;;5027599;28;19905;-78
2024/02/08 06:29:38;;;;;;;;;;;307.30;2304.00;;;;;;5010948;28;20266;-77
2024/02/08 06:35:19;;;;;;;;;;;307.40;2304.00;;;;;;5025438;28;19916;-79
2024/02/08 06:37:46;;;;;;;;;;;307.40;2304.00;;;;;;5007908;28;19925;-79
2024/02/08 06:45:48;;;;;;;;;;;307.40;2304.00;;;;;;5023782;28;19968;-81
2024/02/08 07:37:25;;;;;;;;;;;307.60;2304.00;;;;;;5026063;28;19963;-79
2024/02/08 07:39:54;;;;;;;;;;;307.70;2304.00;;;;;;5024969;28;19909;-84
2024/02/08 07:42:29;;;;;;;;;;;307.80;2304.00;;;;;;5013713;28;20318;-83
2024/02/08 07:45:01;;;;;;;;;;;307.90;2304.00;;;;;;5014315;28;20382;-83
2024/02/08 07:47:27;;;;;;;;;;;307.90;2304.00;;;;;;5010589;28;20329;-78
2024/02/08 07:50:04;;;;;;;;;;;308.00;2304.00;;;;;;5027559;28;19909;-82
2024/02/08 07:52:55;;;;;;;;;;;308.00;2304.00;;;;;;5024201;28;19948;-78
2024/02/08 07:55:46;;;;;;;;;;;308.10;2304.00;;;;;;5037755;28;19916;-82
2024/02/08 07:58:09;;;;;;;;;;;308.10;2304.00;;;;;;5025818;28;19919;-82
2024/02/08 08:03:01;;;;;;;;;;;308.10;2304.00;;;;;;5028629;28;19919;-84
2024/02/08 08:05:33;;;;;;;;;;;308.10;2304.00;;;;;;5009705;28;19909;-79
2024/02/08 08:08:02;;;;;;;;;;;308.10;2304.00;;;;;;5007382;28;19936;-78
2024/02/08 08:10:33;;;;;;;;;;;308.10;2304.00;;;;;;5034990;28;19905;-81
2024/02/08 08:13:06;;;;;;;;;;;308.00;2304.00;;;;;;5020031;28;19909;-80
2024/02/08 08:15:49;;;;;;;;;;;308.10;2304.00;;;;;;5006010;28;19920;-80
2024/02/08 08:18:23;;;;;;;;;;;308.10;2304.00;;;;;;5012769;28;20000;-80
2024/02/08 08:20:58;;;;;;;;;;;308.10;2304.00;;;;;;5005782;28;20040;-79
2024/02/08 08:23:26;;;;;;;;;;;308.10;2304.00;;;;;;5005607;28;20337;-75
2024/02/08 08:26:23;;;;;;;;;;;308.10;2304.00;;;;;;5007083;28;19944;-79
2024/02/08 08:28:52;;;;;;;;;;;308.10;2304.00;;;;;;5031036;28;20366;-81
2024/02/08 08:31:37;;;;;;;;;;;332.80;2329.60;;;;;;5024668;28;19905;-85
2024/02/08 08:36:58;;;;;;;;;;;332.90;2329.60;;;;;;5026885;28;19979;-82
2024/02/08 08:42:16;;;;;;;;;;;333.00;2329.60;;;;;;5016804;28;20048;-83
2024/02/08 08:44:59;;;;;;;;;;;332.90;2329.60;;;;;;5009385;28;19909;-81
2024/02/08 08:47:27;;;;;;;;;;;332.90;2329.60;;;;;;5006227;28;19909;-76
2024/02/08 08:49:53;;;;;;;;;;;332.90;2329.60;;;;;;5037008;28;19909;-78
2024/02/08 08:52:25;;;;;;;;;;;332.90;2329.60;;;;;;5023275;28;19917;-79
2024/02/08 08:55:17;;;;;;;;;;;332.90;2329.60;;;;;;5019210;28;19928;-79
2024/02/08 08:57:37;;;;;;;;;;;333.00;2329.60;;;;;;5025085;28;19917;-78
2024/02/08 09:00:09;;;;;;;;;;;333.10;2329.60;;;;;;5022228;28;19971;-78
2024/02/08 09:02:40;;;;;;;;;;;333.20;2329.60;;;;;;5007577;28;19909;-81
2024/02/08 09:05:17;;;;;;;;;;;333.30;2329.60;;;;;;5002810;28;19960;-78
2024/02/08 09:07:45;;;;;;;;;;;333.30;2329.60;;;;;;5020992;28;19924;-75
2024/02/08 09:10:12;;;;;;;;;;;333.40;2329.60;;;;;;5004220;28;19912;-84
2024/02/08 09:12:39;;;;;;;;;;;333.40;2329.60;;;;;;5006388;28;19913;-78
2024/02/08 09:15:26;;;;;;;;;;;333.50;2329.60;;;;;;5006214;28;19916;-77
2024/02/08 09:17:52;;;;;;;;;;;333.50;2329.60;;;;;;5022175;28;19921;-77
2024/02/08 09:20:23;;;;;;;;;;;333.50;2329.60;;;;;;5004828;28;19917;-80
2024/02/08 09:22:55;;;;;;;;;;;333.60;2329.60;;;;;;5001795;28;19920;-77
2024/02/08 09:25:21;;;;;;;;;;;333.60;2329.60;;;;;;5028565;28;19909;-79
2024/02/08 09:27:55;;;;;;;;;;;333.60;2329.60;;;;;;5016097;28;20000;-82
2024/02/08 09:30:52;;;;;;;;;;;333.60;2329.60;;;;;;5004597;28;19921;-79
2024/02/08 09:33:29;;;;;;;;;;;333.60;2329.60;;;;;;5025631;28;20368;-76
2024/02/08 09:35:59;;;;;;;;;;;333.60;2329.60;;;;;;5016402;28;20370;-79
2024/02/08 09:38:43;;;;;;;;;;;333.60;2329.60;;;;;;5005986;28;19914;-75
2024/02/08 09:41:15;;;;;;;;;;;333.60;2329.60;;;;;;5022508;28;19964;-76
2024/02/08 09:43:44;;;;;;;;;;;333.70;2329.60;;;;;;5002344;28;19905;-80
2024/02/08 09:46:49;;;;;;;;;;;333.70;2329.60;;;;;;5003366;28;19905;-81
2024/02/08 09:49:17;;;;;;;;;;;333.70;2329.60;;;;;;5017916;28;20366;-82
2024/02/08 09:51:52;;;;;;;;;;;333.70;2329.60;;;;;;5003959;28;19918;-82
2024/02/08 09:54:28;;;;;;;;;;;333.70;2329.60;;;;;;5009499;28;19984;-75
2024/02/08 09:57:22;;;;;;;;;;;358.40;2329.60;;;;;;5008401;28;19970;-79
2024/02/08 10:00:01;;;;;;;;;;;333.70;2329.60;;;;;;5006860;28;19915;-76
2024/02/08 10:02:32;;;;;;;;;;;333.70;2329.60;;;;;;5005514;28;19913;-80
2024/02/08 10:05:29;;;;;;;;;;;333.70;2329.60;;;;;;5007293;28;20003;-79
2024/02/08 10:08:09;;;;;;;;;;;333.70;2329.60;;;;;;5031261;28;19916;-81
2024/02/08 10:11:07;;;;;;;;;;;333.70;2329.60;;;;;;5013924;28;20275;-77
2024/02/08 10:13:51;;;;;;;;;;;333.70;2329.60;;;;;;5029437;28;19909;-79
2024/02/08 10:16:20;;;;;;;;;;;333.70;2329.60;;;;;;5025602;28;20024;-75
2024/02/08 10:18:56;;;;;;;;;;;358.40;2329.60;;;;;;5028977;28;20366;-76
2024/02/08 10:21:29;;;;;;;;;;;358.50;2329.60;;;;;;5007327;28;19922;-77
2024/02/08 10:23:58;;;;;;;;;;;358.50;2329.60;;;;;;5016685;28;20000;-76
2024/02/08 10:26:27;;;;;;;;;;;358.70;2329.60;;;;;;5026408;28;19956;-80
2024/02/08 10:28:54;;;;;;;;;;;358.80;2329.60;;;;;;5009511;28;19916;-77
2024/02/08 10:31:28;;;;;;;;;;;358.80;2329.60;;;;;;5028684;28;20283;-78
2024/02/08 10:34:33;;;;;;;;;;;359.00;2329.60;;;;;;5024598;28;20264;-77
2024/02/08 10:36:45;;;;;;;;;;;359.20;2329.60;;;;;;5025274;28;19921;-76
2024/02/08 10:39:23;;;;;;;;;;;384.10;2329.60;;;;;;5011925;28;19975;-81
2024/02/08 10:41:58;;;;;;;;;;;384.20;2329.60;;;;;;5005534;28;19909;-78
2024/02/08 10:44:29;;;;;;;;;;;384.30;2329.60;;;;;;5026712;28;19913;-76
2024/02/08 10:47:06;;;;;;;;;;;384.40;2329.60;;;;;;5017086;28;19916;-77
2024/02/08 10:49:50;;;;;;;;;;;384.70;2329.60;;;;;;5026285;28;19936;-79
2024/02/08 10:52:19;;;;;;;;;;;384.90;2227.20;;;;;;5028494;28;19921;-79
2024/02/08 10:54:51;;;;;;;;;;;410.00;2176.00;;;;;;5002094;28;19912;-81
2024/02/08 11:02:48;;;;;;;;;;;436.00;1945.60;;;;;;5017273;28;19916;-81
2024/02/08 11:07:53;;;;;;;;;;;461.40;1843.20;;;;;;5023197;28;19910;-83
2024/02/08 11:10:31;;;;;;;;;;;486.40;1792.00;;;;;;5005758;28;20039;-80
2024/02/08 11:13:10;;;;;;;;;;;486.80;1740.80;;;;;;5016749;28;19951;-77
2024/02/08 11:15:40;;;;;;;;;;;486.90;1689.60;;;;;;5017687;28;19909;-74
2024/02/08 11:18:25;;;;;;;;;;;487.20;1638.40;;;;;;5008575;28;19920;-83
2024/02/08 11:21:03;;;;;;;;;;;512.00;1612.80;;;;;;5008742;28;20314;-76
2024/02/08 11:23:31;;;;;;;;;;;512.00;1612.80;;;;;;5021463;28;19909;-82
2024/02/08 11:26:06;;;;;;;;;;;512.20;1612.80;;;;;;5005678;28;20286;-81
2024/02/08 11:28:44;;;;;;;;;;;512.50;1587.20;;;;;;5010897;28;19909;-79
2024/02/08 11:31:13;;;;;;;;;;;512.90;1561.60;;;;;;5030522;28;19912;-79
2024/02/08 11:33:42;;;;;;;;;;;537.60;1587.20;;;;;;5004871;28;19994;-76
2024/02/08 11:36:21;;;;;;;;;;;537.70;1536.00;;;;;;5009199;28;19917;-77
2024/02/08 11:38:53;;;;;;;;;;;537.70;1510.40;;;;;;5022780;28;19916;-77
2024/02/08 11:41:25;;;;;;;;;;;537.80;1510.40;;;;;;5010041;28;20264;-79
2024/02/08 11:44:05;;;;;;;;;;;537.80;1510.40;;;;;;5010492;28;19924;-76
2024/02/08 11:46:45;;;;;;;;;;;538.00;1510.40;;;;;;5011690;28;19949;-75
2024/02/08 11:49:16;;;;;;;;;;;538.00;1510.40;;;;;;5028511;28;19917;-81
2024/02/08 11:51:42;;;;;;;;;;;538.00;1510.40;;;;;;5019922;28;20278;-81
2024/02/08 11:54:09;;;;;;;;;;;538.20;1484.80;;;;;;5008270;28;19913;-79
2024/02/08 11:56:35;;;;;;;;;;;538.30;1484.80;;;;;;5023708;28;19920;-79
2024/02/08 11:59:05;;;;;;;;;;;538.00;1459.20;;;;;;5021907;28;19909;-81
2024/02/08 12:01:32;;;;;;;;;;;538.00;1484.80;;;;;;5004235;28;19956;-79
2024/02/08 12:03:58;;;;;;;;;;;537.90;1484.80;;;;;;5006171;28;19996;-77
2024/02/08 12:06:26;;;;;;;;;;;538.00;1510.40;;;;;;5026685;28;19916;-76
2024/02/08 12:09:05;;;;;;;;;;;512.50;1484.80;;;;;;5017546;28;20394;-77
2024/02/08 12:11:32;;;;;;;;;;;512.00;1510.40;;;;;;4999713;28;19920;-83
2024/02/08 12:14:01;;;;;;;;;;;487.10;1536.00;;;;;;5014903;28;19916;-80
2024/02/08 12:16:26;;;;;;;;;;;487.10;1561.60;;;;;;5025624;28;19913;-80
2024/02/08 12:18:56;;;;;;;;;;;487.00;1561.60;;;;;;5004182;28;20264;-82
2024/02/08 12:21:23;;;;;;;;;;;486.70;1612.80;;;;;;5006081;28;20018;-83
2024/02/08 12:23:53;;;;;;;;;;;486.40;1612.80;;;;;;5009633;28;19908;-82
2024/02/08 12:26:22;;;;;;;;;;;486.40;1612.80;;;;;;5003123;28;19916;-82
2024/02/08 12:28:55;;;;;;;;;;;486.50;1612.80;;;;;;5003867;28;20424;-84
2024/02/08 12:31:24;;;;;;;;;;;486.40;1612.80;;;;;;5009150;28;19909;-83
2024/02/08 12:33:51;;;;;;;;;;;486.40;1587.20;;;;;;5012802;28;20259;-81
2024/02/08 12:36:18;;;;;;;;;;;461.70;1612.80;;;;;;5007795;28;19909;-84
2024/02/08 12:38:46;;;;;;;;;;;486.60;1587.20;;;;;;5003408;28;19999;-86
2024/02/08 12:41:12;;;;;;;;;;;486.90;1561.60;;;;;;5016042;28;20259;-85
2024/02/08 12:43:38;;;;;;;;;;;487.00;1561.60;;;;;;5005018;28;19949;-87
2024/02/08 12:46:07;;;;;;;;;;;487.00;1561.60;;;;;;5012059;28;19952;-84
2024/02/08 12:48:33;;;;;;;;;;;487.00;1561.60;;;;;;5009628;28;19916;-85
2024/02/08 12:51:03;;;;;;;;;;;487.20;1561.60;;;;;;5009734;28;19967;-84
2024/02/08 12:53:35;;;;;;;;;;;487.20;1561.60;;;;;;5007890;28;19905;-82
2024/02/08 12:56:09;;;;;;;;;;;487.10;1561.60;;;;;;5006920;28;19913;-84
2024/02/08 12:58:35;;;;;;;;;;;486.90;1561.60;;;;;;5014743;28;19971;-80
2024/02/08 13:01:14;;;;;;;;;;;487.10;1561.60;;;;;;5029521;28;19948;-84
2024/02/08 13:03:40;;;;;;;;;;;487.10;1561.60;;;;;;5026273;28;19995;-84
2024/02/08 13:06:11;;;;;;;;;;;486.90;1561.60;;;;;;5008239;28;19918;-83
2024/02/08 13:08:37;;;;;;;;;;;486.70;1561.60;;;;;;5021288;28;19908;-82
2024/02/08 13:11:03;;;;;;;;;;;486.60;1587.20;;;;;;5015068;28;20401;-82
2024/02/08 13:13:28;;;;;;;;;;;486.60;1587.20;;;;;;5005943;28;19916;-80
2024/02/08 13:16:01;;;;;;;;;;;486.60;1561.60;;;;;;5023757;28;19972;-83
2024/02/08 13:18:30;;;;;;;;;;;486.40;1587.20;;;;;;5010753;28;19931;-83
2024/02/08 13:20:57;;;;;;;;;;;486.40;1587.20;;;;;;5028093;28;19921;-84
2024/02/08 13:23:23;;;;;;;;;;;461.70;1612.80;;;;;;5008244;28;19909;-80
2024/02/08 13:25:48;;;;;;;;;;;461.60;1587.20;;;;;;5009889;28;20003;-84
2024/02/08 13:28:14;;;;;;;;;;;461.60;1587.20;;;;;;5004813;28;19992;-82
2024/02/08 13:30:41;;;;;;;;;;;461.50;1612.80;;;;;;5008920;28;19909;-84
2024/02/08 13:33:10;;;;;;;;;;;461.50;1612.80;;;;;;5005910;28;19919;-84
2024/02/08 13:35:39;;;;;;;;;;;461.50;1612.80;;;;;;5030418;28;19909;-83
2024/02/08 13:38:05;;;;;;;;;;;461.50;1638.40;;;;;;5022073;28;19935;-83
2024/02/08 13:40:31;;;;;;;;;;;461.40;1612.80;;;;;;5032670;28;19913;-86
2024/02/08 13:42:58;;;;;;;;;;;461.40;1612.80;;;;;;5024998;28;19916;-84
2024/02/08 13:45:24;;;;;;;;;;;461.40;1638.40;;;;;;5000562;28;19909;-82
2024/02/08 13:47:54;;;;;;;;;;;461.40;1638.40;;;;;;5002392;28;20361;-84
2024/02/08 13:50:22;;;;;;;;;;;461.20;1664.00;;;;;;5006497;28;19909;-82
2024/02/08 13:52:53;;;;;;;;;;;461.20;1664.00;;;;;;5017868;28;19913;-84
2024/02/08 13:55:19;;;;;;;;;;;461.20;1689.60;;;;;;5024784;28;19912;-83
2024/02/08 13:57:51;;;;;;;;;;;461.20;1664.00;;;;;;5023568;28;20011;-84
2024/02/08 14:00:20;;;;;;;;;;;461.20;1689.60;;;;;;5007277;28;19909;-84
2024/02/08 14:02:49;;;;;;;;;;;461.10;1689.60;;;;;;5002849;28;19909;-84
2024/02/08 14:05:19;;;;;;;;;;;461.10;1689.60;;;;;;5018846;28;19908;-84
2024/02/08 14:07:48;;;;;;;;;;;461.10;1715.20;;;;;;5019638;28;19916;-83
2024/02/08 14:10:17;;;;;;;;;;;461.10;1715.20;;;;;;5028443;28;19904;-84
2024/02/08 14:12:45;;;;;;;;;;;461.00;1715.20;;;;;;5007077;28;19913;-83
2024/02/08 14:15:11;;;;;;;;;;;461.00;1740.80;;;;;;5004606;28;19952;-83
2024/02/08 14:17:40;;;;;;;;;;;460.90;1740.80;;;;;;5027218;28;19960;-83
2024/02/08 14:20:30;;;;;;;;;;;460.90;1740.80;;;;;;5006184;28;20404;-84
2024/02/08 14:22:59;;;;;;;;;;;460.90;1740.80;;;;;;5035025;28;19916;-83
2024/02/08 14:28:14;;;;;;;;;;;461.00;1766.40;;;;;;5023522;28;19916;-83
2024/02/08 14:30:40;;;;;;;;;;;461.00;1740.80;;;;;;5004839;28;19916;-84
2024/02/08 14:33:06;;;;;;;;;;;461.10;1740.80;;;;;;5010887;28;19991;-83
2024/02/08 14:35:32;;;;;;;;;;;461.10;1740.80;;;;;;5031701;28;19913;-84
2024/02/08 14:37:59;;;;;;;;;;;461.10;1740.80;;;;;;5012392;28;20028;-83
2024/02/08 14:40:27;;;;;;;;;;;461.00;1740.80;;;;;;5036883;28;19905;-83
2024/02/08 14:42:57;;;;;;;;;;;461.00;1740.80;;;;;;5033718;28;19916;-84
2024/02/08 14:45:24;;;;;;;;;;;460.90;1740.80;;;;;;5013394;28;20003;-83
2024/02/08 14:47:52;;;;;;;;;;;460.90;1740.80;;;;;;5010946;28;19996;-83
2024/02/08 14:53:04;;;;;;;;;;;436.10;1740.80;;;;;;5021954;28;20063;-86
2024/02/08 14:55:35;;;;;;;;;;;436.10;1766.40;;;;;;5010380;28;19971;-83
2024/02/08 14:58:01;;;;;;;;;;;436.10;1792.00;;;;;;5016793;28;19956;-85
2024/02/08 15:03:21;;;;;;;;;;;436.10;1792.00;;;;;;5024106;28;19908;-84
2024/02/08 15:05:47;;;;;;;;;;;436.10;1817.60;;;;;;5019807;28;19917;-86
2024/02/08 15:11:02;;;;;;;;;;;436.10;1817.60;;;;;;5036066;28;19912;-83
2024/02/08 15:13:49;;;;;;;;;;;436.10;1817.60;;;;;;5029072;28;20018;-84
2024/02/08 15:16:21;;;;;;;;;;;436.10;1817.60;;;;;;5011827;28;20382;-82
2024/02/08 15:18:48;;;;;;;;;;;436.10;1817.60;;;;;;5005738;28;20274;-82
2024/02/08 15:21:14;;;;;;;;;;;436.10;1817.60;;;;;;5006305;28;19928;-84
2024/02/08 15:24:18;;;;;;;;;;;436.10;1817.60;;;;;;5020652;28;20341;-86
2024/02/08 15:26:37;;;;;;;;;;;436.10;1868.80;;;;;;5025752;28;19971;-82
2024/02/08 15:29:09;;;;;;;;;;;436.00;1868.80;;;;;;5008216;28;19915;-84
2024/02/08 15:37:13;;;;;;;;;;;435.70;1920.00;;;;;;4945309;29;19918;-84
2024/02/08 15:42:17;;;;;;;;;;;435.40;1971.20;;;;;;4942058;29;19911;-83
2024/02/08 15:44:52;;;;;;;;;;;435.30;1971.20;;;;;;4923723;29;19914;-84
2024/02/08 15:47:18;;;;;;;;;;;435.30;1996.80;;;;;;4921848;29;20276;-83
2024/02/08 15:49:44;;;;;;;;;;;435.20;1996.80;;;;;;4921767;29;19954;-84
2024/02/08 15:52:22;;;;;;;;;;;410.50;1996.80;;;;;;4920171;29;19995;-80
2024/02/08 15:54:58;;;;;;;;;;;410.40;2022.40;;;;;;4923663;29;19910;-78
2024/02/08 15:57:32;;;;;;;;;;;410.40;2048.00;;;;;;4922681;29;19914;-77
2024/02/08 15:59:59;;;;;;;;;;;410.20;2048.00;;;;;;4941328;29;19910;-76
2024/02/08 16:02:30;;;;;;;;;;;410.20;2073.60;;;;;;4944772;29;19945;-79
2024/02/08 16:05:11;;;;;;;;;;;410.20;2073.60;;;;;;4937392;29;19910;-79
2024/02/08 16:07:42;;;;;;;;;;;410.20;2073.60;;;;;;4943584;29;19917;-78
2024/02/08 16:10:19;;;;;;;;;;;410.10;2099.20;;;;;;4942021;29;20321;-77
2024/02/08 16:12:47;;;;;;;;;;;410.00;2150.40;;;;;;4934522;28;20281;-78
2024/02/08 16:15:17;;;;;;;;;;;409.90;2176.00;;;;;;5005132;28;20059;-80
2024/02/08 16:18:00;;;;;;;;;;;409.90;2201.60;;;;;;5003816;28;19921;-78
2024/02/08 16:20:26;;;;;;;;;;;409.90;2227.20;;;;;;5004422;28;19917;-84
2024/02/08 16:22:56;;;;;;;;;;;409.70;2176.00;;;;;;5010077;28;19963;-82
2024/02/08 16:25:44;;;;;;;;;;;409.60;2201.60;;;;;;5009052;28;20038;-84